sensor_id;sensor_type;location;lat;lon;timestamp;P1;durP1;ratioP1;P2;durP2;ratioP2
14837;SDS011;7510;59.296;18.106;2022-08-23T00:01:44;5.18;;;2.42;;
14837;SDS011;7510;59.296;18.106;2022-08-23T00:04:15;7.93;;;2.67;;
14837;SDS011;7510;59.296;18.106;2022-08-23T00:06:42;4.88;;;2.33;;
14837;SDS011;7510;59.296;18.106;2022-08-23T00:09:08;4.10;;;2.28;;
14837;SDS011;7510;59.296;18.106;2022-08-23T00:14:00;8.70;;;2.63;;
14837;SDS011;7510;59.296;18.106;2022-08-23T00:16:26;5.75;;;2.50;;
14837;SDS011;7510;59.296;18.106;2022-08-23T00:18:51;4.15;;;2.50;;
14837;SDS011;7510;59.296;18.106;2022-08-23T00:21:16;4.30;;;2.08;;
14837;SDS011;7510;59.296;18.106;2022-08-23T00:23:42;6.72;;;2.40;;
14837;SDS011;7510;59.296;18.106;2022-08-23T00:26:08;5.25;;;2.72;;
14837;SDS011;7510;59.296;18.106;2022-08-23T00:28:33;7.22;;;3.08;;
14837;SDS011;7510;59.296;18.106;2022-08-23T00:30:59;4.65;;;2.30;;
14837;SDS011;7510;59.296;18.106;2022-08-23T00:33:24;4.30;;;2.55;;
14837;SDS011;7510;59.296;18.106;2022-08-23T00:35:49;5.60;;;2.55;;
14837;SDS011;7510;59.296;18.106;2022-08-23T00:38:15;7.45;;;2.83;;
14837;SDS011;7510;59.296;18.106;2022-08-23T00:40:44;8.52;;;2.35;;
14837;SDS011;7510;59.296;18.106;2022-08-23T00:43:10;6.70;;;2.65;;
14837;SDS011;7510;59.296;18.106;2022-08-23T00:48:55;7.55;;;2.22;;
14837;SDS011;7510;59.296;18.106;2022-08-23T00:51:22;5.28;;;3.28;;
14837;SDS011;7510;59.296;18.106;2022-08-23T00:53:53;7.35;;;3.13;;
14837;SDS011;7510;59.296;18.106;2022-08-23T00:56:20;6.47;;;2.80;;
14837;SDS011;7510;59.296;18.106;2022-08-23T00:58:46;5.85;;;2.75;;
14837;SDS011;7510;59.296;18.106;2022-08-23T01:01:12;4.90;;;2.40;;
14837;SDS011;7510;59.296;18.106;2022-08-23T01:03:38;5.70;;;3.05;;
14837;SDS011;7510;59.296;18.106;2022-08-23T01:06:26;8.43;;;3.60;;
14837;SDS011;7510;59.296;18.106;2022-08-23T01:08:57;10.95;;;5.30;;
14837;SDS011;7510;59.296;18.106;2022-08-23T01:11:25;7.72;;;4.47;;
14837;SDS011;7510;59.296;18.106;2022-08-23T01:14:35;6.40;;;4.05;;
14837;SDS011;7510;59.296;18.106;2022-08-23T01:19:40;7.88;;;3.60;;
14837;SDS011;7510;59.296;18.106;2022-08-23T01:22:10;6.00;;;3.47;;
14837;SDS011;7510;59.296;18.106;2022-08-23T01:24:37;6.80;;;3.65;;
14837;SDS011;7510;59.296;18.106;2022-08-23T01:27:02;7.43;;;3.35;;
14837;SDS011;7510;59.296;18.106;2022-08-23T01:29:28;11.32;;;3.70;;
14837;SDS011;7510;59.296;18.106;2022-08-23T01:31:53;7.03;;;3.43;;
14837;SDS011;7510;59.296;18.106;2022-08-23T01:34:19;7.90;;;3.17;;
14837;SDS011;7510;59.296;18.106;2022-08-23T01:36:48;7.40;;;3.53;;
14837;SDS011;7510;59.296;18.106;2022-08-23T01:39:14;8.40;;;3.60;;
14837;SDS011;7510;59.296;18.106;2022-08-23T01:41:39;5.87;;;3.50;;
14837;SDS011;7510;59.296;18.106;2022-08-23T01:44:05;8.02;;;3.28;;
14837;SDS011;7510;59.296;18.106;2022-08-23T01:46:30;8.80;;;3.65;;
14837;SDS011;7510;59.296;18.106;2022-08-23T01:48:56;5.72;;;4.13;;
14837;SDS011;7510;59.296;18.106;2022-08-23T01:51:22;11.70;;;4.30;;
14837;SDS011;7510;59.296;18.106;2022-08-23T01:53:48;7.13;;;4.20;;
14837;SDS011;7510;59.296;18.106;2022-08-23T01:56:14;7.07;;;4.28;;
14837;SDS011;7510;59.296;18.106;2022-08-23T01:58:39;10.10;;;3.45;;
14837;SDS011;7510;59.296;18.106;2022-08-23T02:01:05;6.32;;;2.97;;
14837;SDS011;7510;59.296;18.106;2022-08-23T02:03:30;5.82;;;3.05;;
14837;SDS011;7510;59.296;18.106;2022-08-23T02:05:56;10.43;;;3.65;;
14837;SDS011;7510;59.296;18.106;2022-08-23T02:08:21;8.50;;;3.78;;
14837;SDS011;7510;59.296;18.106;2022-08-23T02:11:07;4.53;;;3.80;;
14837;SDS011;7510;59.296;18.106;2022-08-23T02:13:32;6.35;;;3.20;;
14837;SDS011;7510;59.296;18.106;2022-08-23T02:15:57;4.30;;;2.55;;
14837;SDS011;7510;59.296;18.106;2022-08-23T02:18:24;5.22;;;2.90;;
14837;SDS011;7510;59.296;18.106;2022-08-23T02:20:51;5.90;;;2.65;;
14837;SDS011;7510;59.296;18.106;2022-08-23T02:23:16;4.25;;;2.55;;
14837;SDS011;7510;59.296;18.106;2022-08-23T02:25:42;4.07;;;2.20;;
14837;SDS011;7510;59.296;18.106;2022-08-23T02:28:07;8.27;;;3.08;;
14837;SDS011;7510;59.296;18.106;2022-08-23T02:30:33;8.40;;;3.30;;
14837;SDS011;7510;59.296;18.106;2022-08-23T02:32:58;7.70;;;2.70;;
14837;SDS011;7510;59.296;18.106;2022-08-23T02:35:24;7.68;;;2.72;;
14837;SDS011;7510;59.296;18.106;2022-08-23T02:37:49;3.40;;;2.47;;
14837;SDS011;7510;59.296;18.106;2022-08-23T02:40:14;7.32;;;3.00;;
14837;SDS011;7510;59.296;18.106;2022-08-23T02:42:40;4.70;;;2.58;;
14837;SDS011;7510;59.296;18.106;2022-08-23T02:45:07;5.18;;;2.47;;
14837;SDS011;7510;59.296;18.106;2022-08-23T02:47:32;5.20;;;2.42;;
14837;SDS011;7510;59.296;18.106;2022-08-23T02:50:00;5.80;;;2.30;;
14837;SDS011;7510;59.296;18.106;2022-08-23T02:52:26;5.38;;;2.05;;
14837;SDS011;7510;59.296;18.106;2022-08-23T02:54:51;9.00;;;2.40;;
14837;SDS011;7510;59.296;18.106;2022-08-23T02:57:16;3.88;;;2.55;;
14837;SDS011;7510;59.296;18.106;2022-08-23T02:59:41;3.50;;;2.25;;
14837;SDS011;7510;59.296;18.106;2022-08-23T03:02:07;4.15;;;2.05;;
14837;SDS011;7510;59.296;18.106;2022-08-23T03:04:32;8.38;;;2.63;;
14837;SDS011;7510;59.296;18.106;2022-08-23T03:06:57;6.43;;;2.58;;
14837;SDS011;7510;59.296;18.106;2022-08-23T03:09:23;7.70;;;2.85;;
14837;SDS011;7510;59.296;18.106;2022-08-23T03:11:49;5.23;;;2.40;;
14837;SDS011;7510;59.296;18.106;2022-08-23T03:14:14;6.03;;;2.50;;
14837;SDS011;7510;59.296;18.106;2022-08-23T03:16:40;4.63;;;2.47;;
14837;SDS011;7510;59.296;18.106;2022-08-23T03:19:05;5.55;;;2.33;;
14837;SDS011;7510;59.296;18.106;2022-08-23T03:21:30;5.07;;;2.38;;
14837;SDS011;7510;59.296;18.106;2022-08-23T03:23:56;3.05;;;1.98;;
14837;SDS011;7510;59.296;18.106;2022-08-23T03:26:21;5.25;;;2.38;;
14837;SDS011;7510;59.296;18.106;2022-08-23T03:28:46;6.63;;;2.63;;
14837;SDS011;7510;59.296;18.106;2022-08-23T03:31:12;6.82;;;2.53;;
14837;SDS011;7510;59.296;18.106;2022-08-23T03:33:37;4.60;;;1.97;;
14837;SDS011;7510;59.296;18.106;2022-08-23T03:36:05;7.88;;;2.40;;
14837;SDS011;7510;59.296;18.106;2022-08-23T03:38:31;3.42;;;2.00;;
14837;SDS011;7510;59.296;18.106;2022-08-23T03:40:58;7.15;;;2.42;;
14837;SDS011;7510;59.296;18.106;2022-08-23T03:43:25;6.90;;;2.63;;
14837;SDS011;7510;59.296;18.106;2022-08-23T03:45:50;7.45;;;2.42;;
14837;SDS011;7510;59.296;18.106;2022-08-23T03:48:16;5.70;;;2.33;;
14837;SDS011;7510;59.296;18.106;2022-08-23T03:50:41;6.45;;;2.17;;
14837;SDS011;7510;59.296;18.106;2022-08-23T03:53:06;3.80;;;2.40;;
14837;SDS011;7510;59.296;18.106;2022-08-23T03:55:32;7.38;;;2.50;;
14837;SDS011;7510;59.296;18.106;2022-08-23T03:57:57;6.78;;;2.22;;
14837;SDS011;7510;59.296;18.106;2022-08-23T04:00:22;8.00;;;2.60;;
14837;SDS011;7510;59.296;18.106;2022-08-23T04:02:47;6.65;;;2.25;;
14837;SDS011;7510;59.296;18.106;2022-08-23T04:05:13;6.70;;;2.65;;
14837;SDS011;7510;59.296;18.106;2022-08-23T04:07:38;5.90;;;2.58;;
14837;SDS011;7510;59.296;18.106;2022-08-23T04:10:05;6.13;;;2.38;;
14837;SDS011;7510;59.296;18.106;2022-08-23T04:12:31;6.10;;;2.30;;
14837;SDS011;7510;59.296;18.106;2022-08-23T04:14:56;4.28;;;1.88;;
14837;SDS011;7510;59.296;18.106;2022-08-23T04:17:22;6.20;;;2.00;;
14837;SDS011;7510;59.296;18.106;2022-08-23T04:19:47;4.30;;;2.40;;
14837;SDS011;7510;59.296;18.106;2022-08-23T04:22:14;3.08;;;2.45;;
14837;SDS011;7510;59.296;18.106;2022-08-23T04:24:39;4.00;;;2.50;;
14837;SDS011;7510;59.296;18.106;2022-08-23T04:27:05;3.53;;;2.28;;
14837;SDS011;7510;59.296;18.106;2022-08-23T04:29:30;6.70;;;2.42;;
14837;SDS011;7510;59.296;18.106;2022-08-23T04:31:55;6.55;;;2.40;;
14837;SDS011;7510;59.296;18.106;2022-08-23T04:34:21;5.80;;;2.25;;
14837;SDS011;7510;59.296;18.106;2022-08-23T04:36:46;5.05;;;2.33;;
14837;SDS011;7510;59.296;18.106;2022-08-23T04:39:11;4.10;;;1.88;;
14837;SDS011;7510;59.296;18.106;2022-08-23T04:41:36;5.28;;;2.40;;
14837;SDS011;7510;59.296;18.106;2022-08-23T04:44:20;4.32;;;2.35;;
14837;SDS011;7510;59.296;18.106;2022-08-23T04:46:46;4.85;;;2.15;;
14837;SDS011;7510;59.296;18.106;2022-08-23T04:49:12;4.13;;;2.20;;
14837;SDS011;7510;59.296;18.106;2022-08-23T04:51:38;2.70;;;2.00;;
14837;SDS011;7510;59.296;18.106;2022-08-23T04:54:03;5.50;;;2.40;;
14837;SDS011;7510;59.296;18.106;2022-08-23T04:56:28;5.63;;;2.17;;
14837;SDS011;7510;59.296;18.106;2022-08-23T04:58:54;7.20;;;2.40;;
14837;SDS011;7510;59.296;18.106;2022-08-23T05:01:20;5.03;;;2.20;;
14837;SDS011;7510;59.296;18.106;2022-08-23T05:03:45;3.20;;;2.20;;
14837;SDS011;7510;59.296;18.106;2022-08-23T05:06:11;11.30;;;3.22;;
14837;SDS011;7510;59.296;18.106;2022-08-23T05:08:36;4.68;;;2.15;;
14837;SDS011;7510;59.296;18.106;2022-08-23T05:11:03;3.95;;;2.10;;
14837;SDS011;7510;59.296;18.106;2022-08-23T05:13:28;6.35;;;2.70;;
14837;SDS011;7510;59.296;18.106;2022-08-23T05:15:54;10.10;;;2.33;;
14837;SDS011;7510;59.296;18.106;2022-08-23T05:18:19;4.43;;;2.58;;
14837;SDS011;7510;59.296;18.106;2022-08-23T05:20:45;5.07;;;2.38;;
14837;SDS011;7510;59.296;18.106;2022-08-23T05:23:10;5.40;;;2.30;;
14837;SDS011;7510;59.296;18.106;2022-08-23T05:25:35;5.05;;;2.20;;
14837;SDS011;7510;59.296;18.106;2022-08-23T05:30:41;4.32;;;1.90;;
14837;SDS011;7510;59.296;18.106;2022-08-23T05:33:07;6.80;;;2.10;;
14837;SDS011;7510;59.296;18.106;2022-08-23T05:35:32;5.72;;;1.90;;
14837;SDS011;7510;59.296;18.106;2022-08-23T05:37:57;8.95;;;1.98;;
14837;SDS011;7510;59.296;18.106;2022-08-23T05:40:26;12.25;;;3.00;;
14837;SDS011;7510;59.296;18.106;2022-08-23T05:42:52;6.05;;;2.63;;
14837;SDS011;7510;59.296;18.106;2022-08-23T05:45:17;10.85;;;2.63;;
14837;SDS011;7510;59.296;18.106;2022-08-23T05:47:42;7.18;;;2.10;;
14837;SDS011;7510;59.296;18.106;2022-08-23T05:50:07;6.90;;;2.65;;
14837;SDS011;7510;59.296;18.106;2022-08-23T05:52:33;8.77;;;2.55;;
14837;SDS011;7510;59.296;18.106;2022-08-23T05:54:58;7.15;;;2.70;;
14837;SDS011;7510;59.296;18.106;2022-08-23T05:57:23;6.60;;;2.30;;
14837;SDS011;7510;59.296;18.106;2022-08-23T05:59:49;5.60;;;2.40;;
14837;SDS011;7510;59.296;18.106;2022-08-23T06:02:14;5.30;;;2.15;;
14837;SDS011;7510;59.296;18.106;2022-08-23T06:04:39;6.55;;;2.47;;
14837;SDS011;7510;59.296;18.106;2022-08-23T06:07:05;6.97;;;2.30;;
14837;SDS011;7510;59.296;18.106;2022-08-23T06:09:30;6.93;;;2.17;;
14837;SDS011;7510;59.296;18.106;2022-08-23T06:11:56;7.80;;;2.45;;
14837;SDS011;7510;59.296;18.106;2022-08-23T06:14:22;7.00;;;2.85;;
14837;SDS011;7510;59.296;18.106;2022-08-23T06:16:48;5.88;;;2.10;;
14837;SDS011;7510;59.296;18.106;2022-08-23T06:19:14;7.53;;;1.95;;
14837;SDS011;7510;59.296;18.106;2022-08-23T06:21:39;5.03;;;2.03;;
14837;SDS011;7510;59.296;18.106;2022-08-23T06:24:05;5.75;;;1.65;;
14837;SDS011;7510;59.296;18.106;2022-08-23T06:26:32;3.33;;;1.67;;
14837;SDS011;7510;59.296;18.106;2022-08-23T06:28:59;4.93;;;1.90;;
14837;SDS011;7510;59.296;18.106;2022-08-23T06:31:26;5.45;;;1.80;;
14837;SDS011;7510;59.296;18.106;2022-08-23T06:36:42;5.68;;;1.88;;
14837;SDS011;7510;59.296;18.106;2022-08-23T06:39:08;3.28;;;1.58;;
14837;SDS011;7510;59.296;18.106;2022-08-23T06:41:34;6.30;;;1.58;;
14837;SDS011;7510;59.296;18.106;2022-08-23T06:43:59;4.05;;;1.80;;
14837;SDS011;7510;59.296;18.106;2022-08-23T06:46:25;4.78;;;1.88;;
14837;SDS011;7510;59.296;18.106;2022-08-23T06:48:51;5.47;;;1.70;;
14837;SDS011;7510;59.296;18.106;2022-08-23T06:52:00;4.03;;;1.60;;
14837;SDS011;7510;59.296;18.106;2022-08-23T06:54:07;5.85;;;1.98;;
14837;SDS011;7510;59.296;18.106;2022-08-23T06:56:34;5.95;;;1.60;;
14837;SDS011;7510;59.296;18.106;2022-08-23T06:58:59;3.03;;;1.60;;
14837;SDS011;7510;59.296;18.106;2022-08-23T07:01:35;4.57;;;1.90;;
14837;SDS011;7510;59.296;18.106;2022-08-23T07:04:02;4.63;;;1.60;;
14837;SDS011;7510;59.296;18.106;2022-08-23T07:06:28;4.10;;;1.67;;
14837;SDS011;7510;59.296;18.106;2022-08-23T07:08:53;4.38;;;1.83;;
14837;SDS011;7510;59.296;18.106;2022-08-23T07:11:20;3.33;;;1.52;;
14837;SDS011;7510;59.296;18.106;2022-08-23T07:13:46;4.32;;;1.90;;
14837;SDS011;7510;59.296;18.106;2022-08-23T07:16:12;3.40;;;1.60;;
14837;SDS011;7510;59.296;18.106;2022-08-23T07:18:38;3.75;;;1.50;;
14837;SDS011;7510;59.296;18.106;2022-08-23T07:21:04;7.28;;;1.77;;
14837;SDS011;7510;59.296;18.106;2022-08-23T07:23:30;4.63;;;1.45;;
14837;SDS011;7510;59.296;18.106;2022-08-23T07:25:59;2.58;;;1.40;;
14837;SDS011;7510;59.296;18.106;2022-08-23T07:28:25;3.80;;;1.55;;
14837;SDS011;7510;59.296;18.106;2022-08-23T07:30:50;4.35;;;1.35;;
14837;SDS011;7510;59.296;18.106;2022-08-23T07:33:16;3.90;;;1.35;;
14837;SDS011;7510;59.296;18.106;2022-08-23T07:35:45;4.63;;;1.50;;
14837;SDS011;7510;59.296;18.106;2022-08-23T07:38:10;3.28;;;1.42;;
14837;SDS011;7510;59.296;18.106;2022-08-23T07:40:36;5.32;;;1.80;;
14837;SDS011;7510;59.296;18.106;2022-08-23T07:43:01;5.97;;;1.50;;
14837;SDS011;7510;59.296;18.106;2022-08-23T07:45:27;3.90;;;1.23;;
14837;SDS011;7510;59.296;18.106;2022-08-23T07:47:53;1.88;;;0.90;;
14837;SDS011;7510;59.296;18.106;2022-08-23T07:50:18;3.10;;;1.23;;
14837;SDS011;7510;59.296;18.106;2022-08-23T07:52:43;4.28;;;1.27;;
14837;SDS011;7510;59.296;18.106;2022-08-23T07:55:09;1.98;;;1.20;;
14837;SDS011;7510;59.296;18.106;2022-08-23T07:57:34;3.95;;;1.70;;
14837;SDS011;7510;59.296;18.106;2022-08-23T07:59:59;3.15;;;1.48;;
14837;SDS011;7510;59.296;18.106;2022-08-23T08:02:25;3.83;;;1.38;;
14837;SDS011;7510;59.296;18.106;2022-08-23T08:04:50;3.40;;;1.20;;
14837;SDS011;7510;59.296;18.106;2022-08-23T08:07:15;11.63;;;1.70;;
14837;SDS011;7510;59.296;18.106;2022-08-23T08:09:40;4.32;;;1.10;;
14837;SDS011;7510;59.296;18.106;2022-08-23T08:12:06;2.85;;;0.95;;
14837;SDS011;7510;59.296;18.106;2022-08-23T08:14:31;2.20;;;0.85;;
14837;SDS011;7510;59.296;18.106;2022-08-23T08:16:56;3.30;;;1.08;;
14837;SDS011;7510;59.296;18.106;2022-08-23T08:19:24;4.00;;;0.98;;
14837;SDS011;7510;59.296;18.106;2022-08-23T08:21:49;5.07;;;1.10;;
14837;SDS011;7510;59.296;18.106;2022-08-23T08:24:15;1.48;;;0.75;;
14837;SDS011;7510;59.296;18.106;2022-08-23T08:26:42;2.17;;;1.05;;
14837;SDS011;7510;59.296;18.106;2022-08-23T08:29:08;3.22;;;1.00;;
14837;SDS011;7510;59.296;18.106;2022-08-23T08:31:38;1.75;;;0.70;;
14837;SDS011;7510;59.296;18.106;2022-08-23T08:34:05;1.25;;;0.85;;
14837;SDS011;7510;59.296;18.106;2022-08-23T08:38:56;1.85;;;0.98;;
14837;SDS011;7510;59.296;18.106;2022-08-23T08:41:24;1.35;;;0.80;;
14837;SDS011;7510;59.296;18.106;2022-08-23T08:44:04;2.28;;;0.90;;
14837;SDS011;7510;59.296;18.106;2022-08-23T08:46:38;3.05;;;1.00;;
14837;SDS011;7510;59.296;18.106;2022-08-23T08:49:06;2.55;;;1.05;;
14837;SDS011;7510;59.296;18.106;2022-08-23T08:51:37;3.05;;;0.93;;
14837;SDS011;7510;59.296;18.106;2022-08-23T08:54:08;3.55;;;1.20;;
14837;SDS011;7510;59.296;18.106;2022-08-23T08:56:35;0.85;;;0.70;;
14837;SDS011;7510;59.296;18.106;2022-08-23T08:59:04;3.20;;;1.17;;
14837;SDS011;7510;59.296;18.106;2022-08-23T09:01:30;3.22;;;0.90;;
14837;SDS011;7510;59.296;18.106;2022-08-23T09:03:56;2.92;;;1.20;;
14837;SDS011;7510;59.296;18.106;2022-08-23T09:06:43;2.50;;;1.05;;
14837;SDS011;7510;59.296;18.106;2022-08-23T09:19:39;2.08;;;1.15;;
14837;SDS011;7510;59.296;18.106;2022-08-23T09:22:10;2.53;;;0.95;;
14837;SDS011;7510;59.296;18.106;2022-08-23T09:24:37;2.65;;;0.90;;
14837;SDS011;7510;59.296;18.106;2022-08-23T09:27:02;2.08;;;0.73;;
14837;SDS011;7510;59.296;18.106;2022-08-23T09:29:32;2.35;;;1.10;;
14837;SDS011;7510;59.296;18.106;2022-08-23T09:32:02;2.08;;;1.25;;
14837;SDS011;7510;59.296;18.106;2022-08-23T09:39:37;5.03;;;1.08;;
14837;SDS011;7510;59.296;18.106;2022-08-23T09:42:07;2.05;;;0.90;;
14837;SDS011;7510;59.296;18.106;2022-08-23T09:44:38;3.72;;;1.20;;
14837;SDS011;7510;59.296;18.106;2022-08-23T09:47:05;5.32;;;1.50;;
14837;SDS011;7510;59.296;18.106;2022-08-23T09:49:31;2.67;;;0.80;;
14837;SDS011;7510;59.296;18.106;2022-08-23T09:52:00;2.03;;;1.02;;
14837;SDS011;7510;59.296;18.106;2022-08-23T09:54:30;2.75;;;1.00;;
14837;SDS011;7510;59.296;18.106;2022-08-23T09:57:00;3.92;;;1.23;;
14837;SDS011;7510;59.296;18.106;2022-08-23T09:59:30;3.10;;;1.15;;
14837;SDS011;7510;59.296;18.106;2022-08-23T10:01:58;1.77;;;0.90;;
14837;SDS011;7510;59.296;18.106;2022-08-23T10:06:49;3.65;;;0.93;;
14837;SDS011;7510;59.296;18.106;2022-08-23T10:09:27;3.45;;;1.40;;
14837;SDS011;7510;59.296;18.106;2022-08-23T10:11:56;5.85;;;1.08;;
14837;SDS011;7510;59.296;18.106;2022-08-23T10:14:22;2.53;;;1.05;;
14837;SDS011;7510;59.296;18.106;2022-08-23T10:21:56;3.53;;;1.17;;
14837;SDS011;7510;59.296;18.106;2022-08-23T10:24:28;0.95;;;0.80;;
14837;SDS011;7510;59.296;18.106;2022-08-23T10:29:37;2.33;;;0.75;;
14837;SDS011;7510;59.296;18.106;2022-08-23T10:34:47;2.72;;;1.05;;
14837;SDS011;7510;59.296;18.106;2022-08-23T10:39:47;2.67;;;1.02;;
14837;SDS011;7510;59.296;18.106;2022-08-23T10:45:09;1.98;;;0.77;;
14837;SDS011;7510;59.296;18.106;2022-08-23T10:50:22;1.25;;;0.70;;
14837;SDS011;7510;59.296;18.106;2022-08-23T10:52:54;1.98;;;0.82;;
14837;SDS011;7510;59.296;18.106;2022-08-23T10:55:24;1.58;;;0.63;;
14837;SDS011;7510;59.296;18.106;2022-08-23T10:58:04;1.38;;;0.57;;
14837;SDS011;7510;59.296;18.106;2022-08-23T11:00:31;3.47;;;1.25;;
14837;SDS011;7510;59.296;18.106;2022-08-23T11:05:40;3.53;;;1.02;;
14837;SDS011;7510;59.296;18.106;2022-08-23T11:08:11;2.17;;;0.73;;
14837;SDS011;7510;59.296;18.106;2022-08-23T11:10:54;1.42;;;0.80;;
14837;SDS011;7510;59.296;18.106;2022-08-23T11:13:21;4.72;;;0.93;;
14837;SDS011;7510;59.296;18.106;2022-08-23T11:16:00;4.65;;;0.80;;
14837;SDS011;7510;59.296;18.106;2022-08-23T11:18:45;3.42;;;0.75;;
14837;SDS011;7510;59.296;18.106;2022-08-23T11:28:51;4.82;;;1.05;;
14837;SDS011;7510;59.296;18.106;2022-08-23T11:31:19;1.90;;;0.80;;
14837;SDS011;7510;59.296;18.106;2022-08-23T11:33:46;2.40;;;0.82;;
14837;SDS011;7510;59.296;18.106;2022-08-23T11:43:43;2.15;;;0.90;;
14837;SDS011;7510;59.296;18.106;2022-08-23T11:46:47;1.85;;;0.80;;
14837;SDS011;7510;59.296;18.106;2022-08-23T12:01:48;2.83;;;0.88;;
14837;SDS011;7510;59.296;18.106;2022-08-23T12:04:33;2.90;;;0.70;;
14837;SDS011;7510;59.296;18.106;2022-08-23T12:06:59;1.27;;;0.68;;
14837;SDS011;7510;59.296;18.106;2022-08-23T12:25:21;2.03;;;0.80;;
14837;SDS011;7510;59.296;18.106;2022-08-23T12:27:49;1.30;;;0.80;;
14837;SDS011;7510;59.296;18.106;2022-08-23T12:35:21;1.63;;;0.70;;
14837;SDS011;7510;59.296;18.106;2022-08-23T12:37:53;1.70;;;0.70;;
14837;SDS011;7510;59.296;18.106;2022-08-23T12:40:25;2.88;;;0.95;;
14837;SDS011;7510;59.296;18.106;2022-08-23T12:42:52;1.85;;;0.70;;
14837;SDS011;7510;59.296;18.106;2022-08-23T12:45:26;3.35;;;0.88;;
14837;SDS011;7510;59.296;18.106;2022-08-23T12:48:00;0.98;;;0.70;;
14837;SDS011;7510;59.296;18.106;2022-08-23T12:50:29;1.73;;;1.10;;
14837;SDS011;7510;59.296;18.106;2022-08-23T12:52:56;0.93;;;0.60;;
14837;SDS011;7510;59.296;18.106;2022-08-23T12:55:22;3.15;;;0.98;;
14837;SDS011;7510;59.296;18.106;2022-08-23T12:57:52;0.95;;;0.80;;
14837;SDS011;7510;59.296;18.106;2022-08-23T13:02:48;2.95;;;1.00;;
14837;SDS011;7510;59.296;18.106;2022-08-23T13:05:59;2.72;;;0.82;;
14837;SDS011;7510;59.296;18.106;2022-08-23T13:08:07;1.48;;;0.80;;
14837;SDS011;7510;59.296;18.106;2022-08-23T13:10:32;1.38;;;0.70;;
14837;SDS011;7510;59.296;18.106;2022-08-23T13:12:58;4.75;;;0.80;;
14837;SDS011;7510;59.296;18.106;2022-08-23T13:18:07;4.05;;;0.65;;
14837;SDS011;7510;59.296;18.106;2022-08-23T13:20:35;2.03;;;0.80;;
14837;SDS011;7510;59.296;18.106;2022-08-23T13:23:02;1.13;;;0.70;;
14837;SDS011;7510;59.296;18.106;2022-08-23T13:25:38;1.98;;;0.85;;
14837;SDS011;7510;59.296;18.106;2022-08-23T13:28:05;2.28;;;0.98;;
14837;SDS011;7510;59.296;18.106;2022-08-23T13:30:34;0.85;;;0.63;;
14837;SDS011;7510;59.296;18.106;2022-08-23T13:35:38;3.42;;;1.30;;
14837;SDS011;7510;59.296;18.106;2022-08-23T13:40:53;1.70;;;0.85;;
14837;SDS011;7510;59.296;18.106;2022-08-23T13:43:32;1.27;;;0.73;;
14837;SDS011;7510;59.296;18.106;2022-08-23T13:45:59;2.17;;;0.65;;
14837;SDS011;7510;59.296;18.106;2022-08-23T13:48:33;5.80;;;0.90;;
14837;SDS011;7510;59.296;18.106;2022-08-23T13:53:42;1.38;;;0.52;;
14837;SDS011;7510;59.296;18.106;2022-08-23T13:56:07;4.90;;;0.65;;
14837;SDS011;7510;59.296;18.106;2022-08-23T13:58:32;3.47;;;0.60;;
14837;SDS011;7510;59.296;18.106;2022-08-23T14:00:59;2.58;;;0.90;;
14837;SDS011;7510;59.296;18.106;2022-08-23T14:03:26;1.48;;;0.98;;
14837;SDS011;7510;59.296;18.106;2022-08-23T14:05:51;4.68;;;1.00;;
14837;SDS011;7510;59.296;18.106;2022-08-23T14:08:17;1.98;;;0.93;;
14837;SDS011;7510;59.296;18.106;2022-08-23T14:10:42;2.35;;;0.80;;
14837;SDS011;7510;59.296;18.106;2022-08-23T14:13:10;1.77;;;0.60;;
14837;SDS011;7510;59.296;18.106;2022-08-23T14:15:36;3.20;;;0.70;;
14837;SDS011;7510;59.296;18.106;2022-08-23T14:18:02;1.33;;;0.55;;
14837;SDS011;7510;59.296;18.106;2022-08-23T14:20:27;1.77;;;0.70;;
14837;SDS011;7510;59.296;18.106;2022-08-23T14:22:53;1.90;;;0.77;;
14837;SDS011;7510;59.296;18.106;2022-08-23T14:25:18;1.60;;;0.70;;
14837;SDS011;7510;59.296;18.106;2022-08-23T14:27:44;3.00;;;0.93;;
14837;SDS011;7510;59.296;18.106;2022-08-23T14:30:11;2.95;;;0.93;;
14837;SDS011;7510;59.296;18.106;2022-08-23T14:32:40;2.35;;;0.98;;
14837;SDS011;7510;59.296;18.106;2022-08-23T14:35:05;1.23;;;0.80;;
14837;SDS011;7510;59.296;18.106;2022-08-23T14:37:31;2.35;;;0.70;;
14837;SDS011;7510;59.296;18.106;2022-08-23T14:39:56;1.52;;;0.90;;
14837;SDS011;7510;59.296;18.106;2022-08-23T14:42:22;1.40;;;0.80;;
14837;SDS011;7510;59.296;18.106;2022-08-23T14:44:48;2.70;;;0.90;;
14837;SDS011;7510;59.296;18.106;2022-08-23T14:47:14;3.13;;;0.90;;
14837;SDS011;7510;59.296;18.106;2022-08-23T14:49:39;5.47;;;1.00;;
14837;SDS011;7510;59.296;18.106;2022-08-23T14:52:04;2.83;;;1.05;;
14837;SDS011;7510;59.296;18.106;2022-08-23T14:54:30;2.40;;;0.95;;
14837;SDS011;7510;59.296;18.106;2022-08-23T14:56:55;1.92;;;0.90;;
14837;SDS011;7510;59.296;18.106;2022-08-23T14:59:21;1.60;;;1.00;;
14837;SDS011;7510;59.296;18.106;2022-08-23T15:01:47;2.53;;;1.05;;
14837;SDS011;7510;59.296;18.106;2022-08-23T15:04:16;2.45;;;0.98;;
14837;SDS011;7510;59.296;18.106;2022-08-23T15:06:41;1.38;;;1.20;;
14837;SDS011;7510;59.296;18.106;2022-08-23T15:09:07;1.50;;;0.90;;
14837;SDS011;7510;59.296;18.106;2022-08-23T15:11:32;1.52;;;1.25;;
14837;SDS011;7510;59.296;18.106;2022-08-23T15:13:57;1.73;;;0.98;;
14837;SDS011;7510;59.296;18.106;2022-08-23T15:16:23;4.97;;;1.10;;
14837;SDS011;7510;59.296;18.106;2022-08-23T15:18:50;1.63;;;1.00;;
14837;SDS011;7510;59.296;18.106;2022-08-23T15:21:16;2.53;;;1.30;;
14837;SDS011;7510;59.296;18.106;2022-08-23T15:23:41;4.60;;;1.25;;
14837;SDS011;7510;59.296;18.106;2022-08-23T15:26:07;3.63;;;1.55;;
14837;SDS011;7510;59.296;18.106;2022-08-23T15:28:33;3.95;;;0.90;;
14837;SDS011;7510;59.296;18.106;2022-08-23T15:30:58;3.67;;;1.10;;
14837;SDS011;7510;59.296;18.106;2022-08-23T15:33:24;1.85;;;1.00;;
14837;SDS011;7510;59.296;18.106;2022-08-23T15:35:50;3.55;;;1.08;;
14837;SDS011;7510;59.296;18.106;2022-08-23T15:38:19;2.70;;;1.20;;
14837;SDS011;7510;59.296;18.106;2022-08-23T15:40:45;2.63;;;1.25;;
14837;SDS011;7510;59.296;18.106;2022-08-23T15:43:10;2.50;;;0.93;;
14837;SDS011;7510;59.296;18.106;2022-08-23T15:45:36;2.00;;;0.80;;
14837;SDS011;7510;59.296;18.106;2022-08-23T15:48:01;2.03;;;1.25;;
14837;SDS011;7510;59.296;18.106;2022-08-23T15:50:31;2.47;;;1.10;;
14837;SDS011;7510;59.296;18.106;2022-08-23T15:52:56;3.47;;;1.30;;
14837;SDS011;7510;59.296;18.106;2022-08-23T15:55:22;5.10;;;1.23;;
14837;SDS011;7510;59.296;18.106;2022-08-23T15:57:49;2.05;;;1.08;;
14837;SDS011;7510;59.296;18.106;2022-08-23T16:00:15;2.35;;;1.27;;
14837;SDS011;7510;59.296;18.106;2022-08-23T16:02:41;3.42;;;1.00;;
14837;SDS011;7510;59.296;18.106;2022-08-23T16:05:07;3.05;;;1.48;;
14837;SDS011;7510;59.296;18.106;2022-08-23T16:07:32;3.53;;;1.30;;
14837;SDS011;7510;59.296;18.106;2022-08-23T16:09:58;8.77;;;1.88;;
14837;SDS011;7510;59.296;18.106;2022-08-23T16:12:26;4.60;;;1.55;;
14837;SDS011;7510;59.296;18.106;2022-08-23T16:14:51;5.97;;;1.67;;
14837;SDS011;7510;59.296;18.106;2022-08-23T16:17:18;3.28;;;1.40;;
14837;SDS011;7510;59.296;18.106;2022-08-23T16:19:44;3.05;;;1.77;;
14837;SDS011;7510;59.296;18.106;2022-08-23T16:22:09;4.30;;;1.75;;
14837;SDS011;7510;59.296;18.106;2022-08-23T16:24:34;3.80;;;1.38;;
14837;SDS011;7510;59.296;18.106;2022-08-23T16:26:59;4.10;;;1.70;;
14837;SDS011;7510;59.296;18.106;2022-08-23T16:29:25;3.42;;;1.80;;
14837;SDS011;7510;59.296;18.106;2022-08-23T16:31:55;4.88;;;2.00;;
14837;SDS011;7510;59.296;18.106;2022-08-23T16:34:21;7.32;;;2.60;;
14837;SDS011;7510;59.296;18.106;2022-08-23T16:36:48;2.72;;;2.10;;
14837;SDS011;7510;59.296;18.106;2022-08-23T16:39:15;5.05;;;2.17;;
14837;SDS011;7510;59.296;18.106;2022-08-23T16:41:40;5.93;;;2.08;;
14837;SDS011;7510;59.296;18.106;2022-08-23T16:44:06;5.13;;;2.05;;
14837;SDS011;7510;59.296;18.106;2022-08-23T16:46:31;5.47;;;2.40;;